Time;durP1;ratioP1;P1;durP2;ratioP2;P2;SDS_P1;SDS_P2;PMS_P1;PMS_P2;Temp;Humidity;BMP_temperature;BMP_pressure;BME280_temperature;BME280_humidity;BME280_pressure;Samples;Min_cycle;Max_cycle;Signal;HPM_P1;HPM_P2
2023/08/24 00:01:13;;;;;;;5.43;2.72;;;;;;;19.85;96.64;100785.69;8302743;28;20037;-61
2023/08/24 00:05:13;;;;;;;7.43;2.47;;;;;;;20.16;95.21;100783.53;8304559;28;20492;-61
2023/08/24 00:09:15;;;;;;;9.60;2.65;;;;;;;20.17;94.71;100779.72;8304255;28;20044;-61
2023/08/24 00:13:16;;;;;;;6.40;2.15;;;;;;;20.17;94.67;100785.22;8305818;28;20499;-61
2023/08/24 00:17:16;;;;;;;7.90;3.05;;;;;;;20.06;95.55;100777.50;8307145;28;20578;-61
2023/08/24 00:21:17;;;;;;;7.78;2.38;;;;;;;20.05;95.79;100781.25;8304500;28;20419;-60
2023/08/24 00:25:18;;;;;;;4.43;3.20;;;;;;;20.20;94.95;100782.09;8306574;28;20041;-60
2023/08/24 00:29:18;;;;;;;4.97;2.45;;;;;;;20.06;95.25;100772.00;8305637;28;20076;-60
2023/08/24 00:33:19;;;;;;;5.90;2.55;;;;;;;19.94;96.02;100773.56;8301915;28;20088;-59
2023/08/24 00:37:20;;;;;;;5.18;2.50;;;;;;;19.89;95.23;100765.03;8307135;28;20369;-59
2023/08/24 00:41:21;;;;;;;3.90;2.15;;;;;;;19.93;94.94;100763.59;8305480;28;20029;-61
2023/08/24 00:45:21;;;;;;;5.63;2.83;;;;;;;19.83;95.13;100761.19;8304779;28;20037;-61
2023/08/24 00:49:22;;;;;;;8.65;2.40;;;;;;;19.84;94.88;100746.41;8311434;28;20061;-61
2023/08/24 00:53:25;;;;;;;9.77;3.13;;;;;;;19.77;94.94;100747.38;8307821;28;20037;-61
2023/08/24 00:57:27;;;;;;;6.60;3.15;;;;;;;19.63;96.73;100740.91;8310381;28;20052;-61
2023/08/24 01:01:28;;;;;;;7.85;2.83;;;;;;;19.67;97.58;100741.38;8309228;28;20483;-61
2023/08/24 01:05:29;;;;;;;8.13;3.10;;;;;;;19.69;97.78;100742.88;8312474;28;20515;-61
2023/08/24 01:09:30;;;;;;;6.70;3.65;;;;;;;19.60;97.98;100754.19;8310007;28;20045;-61
2023/08/24 01:13:41;;;;;;;8.05;3.40;;;;;;;19.60;98.37;100749.53;8310065;28;20041;-61
2023/08/24 01:17:43;;;;;;;5.95;3.42;;;;;;;19.57;99.36;100749.06;8310304;28;20034;-61
2023/08/24 01:21:44;;;;;;;11.15;4.05;;;;;;;19.58;99.32;100735.16;8312395;28;20399;-61
2023/08/24 01:25:53;;;;;;;5.47;3.58;;;;;;;19.60;100.00;100748.69;8310729;28;20095;-61
2023/08/24 01:29:56;;;;;;;5.63;3.25;;;;;;;19.56;100.00;100736.38;8309930;28;20045;-61
2023/08/24 01:34:01;;;;;;;7.97;3.78;;;;;;;19.62;100.00;100735.59;8309948;28;20487;-61
2023/08/24 01:38:02;;;;;;;4.97;2.88;;;;;;;19.67;100.00;100733.16;8311114;28;20091;-61
2023/08/24 01:42:07;;;;;;;8.38;3.72;;;;;;;19.79;99.72;100726.09;8314742;28;20064;-61
2023/08/24 01:46:14;;;;;;;7.75;3.63;;;;;;;19.71;100.00;100727.06;8325934;28;20050;-61
2023/08/24 01:50:15;;;;;;;11.35;3.58;;;;;;;19.51;100.00;100719.69;8316268;28;20038;-61
2023/08/24 01:54:16;;;;;;;8.10;3.95;;;;;;;19.47;100.00;100710.97;8310549;28;20116;-61
2023/08/24 01:58:17;;;;;;;12.55;4.80;;;;;;;19.47;100.00;100694.50;8310372;28;20052;-61
2023/08/24 02:02:17;;;;;;;8.10;4.55;;;;;;;19.60;100.00;100688.34;8306516;28;20041;-61
2023/08/24 02:06:18;;;;;;;8.95;4.20;;;;;;;19.58;100.00;100684.94;8310899;28;20065;-61
2023/08/24 02:10:18;;;;;;;13.55;4.97;;;;;;;19.78;100.00;100685.97;8309273;28;20037;-61
2023/08/24 02:14:19;;;;;;;7.07;4.38;;;;;;;19.81;100.00;100680.09;8306760;28;20487;-60
2023/08/24 02:18:19;;;;;;;9.45;4.05;;;;;;;19.80;100.00;100673.78;8306929;28;20049;-61
2023/08/24 02:22:20;;;;;;;9.75;3.83;;;;;;;19.88;100.00;100681.03;8310713;28;20041;-61
2023/08/24 02:26:21;;;;;;;9.10;4.43;;;;;;;19.92;100.00;100685.06;8309542;28;20041;-61
2023/08/24 02:30:21;;;;;;;10.68;4.35;;;;;;;20.11;100.00;100685.25;8304877;28;20049;-60
2023/08/24 02:34:23;;;;;;;7.18;3.75;;;;;;;20.25;99.57;100683.50;8307856;28;20046;-61
2023/08/24 02:38:24;;;;;;;6.45;3.90;;;;;;;20.18;100.00;100679.84;8309939;28;20033;-61
2023/08/24 02:42:25;;;;;;;10.05;4.22;;;;;;;20.14;100.00;100675.78;8308165;28;20110;-61
2023/08/24 02:46:26;;;;;;;8.82;4.10;;;;;;;20.31;100.00;100679.97;8307748;28;20042;-61
2023/08/24 02:50:27;;;;;;;10.88;3.90;;;;;;;20.33;99.75;100680.59;8309691;28;20087;-61
2023/08/24 02:54:27;;;;;;;8.55;3.28;;;;;;;20.33;99.89;100678.72;8308369;28;20043;-61
2023/08/24 02:58:28;;;;;;;9.63;3.38;;;;;;;20.16;100.00;100682.78;8307420;28;20041;-61
2023/08/24 03:02:29;;;;;;;8.95;4.10;;;;;;;20.33;100.00;100672.34;8303824;28;20061;-61
2023/08/24 03:06:29;;;;;;;5.88;3.58;;;;;;;20.50;99.21;100676.50;8309517;28;20460;-61
2023/08/24 03:10:31;;;;;;;15.50;4.38;;;;;;;20.62;98.08;100677.66;8307566;28;20547;-61
2023/08/24 03:14:32;;;;;;;8.95;3.38;;;;;;;20.68;96.77;100690.59;8306240;28;20041;-61
2023/08/24 03:18:34;;;;;;;6.90;3.38;;;;;;;20.68;97.34;100690.59;8305992;28;20567;-61
2023/08/24 03:22:37;;;;;;;5.85;3.67;;;;;;;20.56;98.55;100695.78;8308412;28;20040;-61
2023/08/24 03:26:39;;;;;;;7.82;3.85;;;;;;;20.58;97.14;100703.81;8306105;28;20503;-61
2023/08/24 03:30:47;;;;;;;5.97;3.17;;;;;;;20.72;96.11;100716.59;8304807;28;20438;-61
2023/08/24 03:34:48;;;;;;;6.68;3.70;;;;;;;20.86;94.95;100748.63;8303312;28;20038;-61
2023/08/24 03:38:48;;;;;;;6.28;3.38;;;;;;;20.99;94.67;100754.25;8306772;28;20034;-61
2023/08/24 03:42:49;;;;;;;7.32;3.72;;;;;;;20.98;95.00;100758.06;8308416;28;20044;-61
2023/08/24 03:46:50;;;;;;;5.53;3.50;;;;;;;20.88;97.03;100743.75;8306168;28;20037;-61
2023/08/24 03:50:54;;;;;;;6.65;3.90;;;;;;;20.64;97.87;100738.72;8306082;28;20556;-61
2023/08/24 03:54:55;;;;;;;12.13;4.00;;;;;;;20.53;97.80;100742.03;8307472;28;20034;-61
2023/08/24 03:58:55;;;;;;;6.95;4.40;;;;;;;20.47;97.65;100742.84;8307951;28;20048;-61
2023/08/24 04:02:56;;;;;;;5.93;3.42;;;;;;;20.39;98.95;100737.47;8302158;28;20033;-61
2023/08/24 04:07:00;;;;;;;6.00;4.05;;;;;;;20.30;100.00;100735.91;8304533;28;20041;-61
2023/08/24 04:11:00;;;;;;;9.85;3.90;;;;;;;20.26;100.00;100729.13;8307522;28;20128;-61
2023/08/24 04:15:01;;;;;;;8.25;4.15;;;;;;;20.26;100.00;100718.16;8305964;28;20068;-61
2023/08/24 04:19:02;;;;;;;9.38;4.10;;;;;;;20.34;100.00;100710.59;8291122;28;20084;-61
2023/08/24 04:23:03;;;;;;;6.45;3.53;;;;;;;20.42;100.00;100702.22;8299711;28;20055;-62
2023/08/24 04:27:03;;;;;;;6.15;4.20;;;;;;;20.36;100.00;100693.94;8305192;28;20084;-61
2023/08/24 04:31:04;;;;;;;13.18;4.90;;;;;;;20.20;100.00;100680.50;8305790;28;20105;-62
2023/08/24 04:35:05;;;;;;;10.52;4.53;;;;;;;20.13;100.00;100665.88;8311352;28;20042;-61
2023/08/24 04:39:05;;;;;;;9.38;4.65;;;;;;;20.03;100.00;100651.63;8297151;28;20423;-61
2023/08/24 04:43:05;;;;;;;9.32;4.18;;;;;;;19.93;100.00;100634.59;8304458;28;20048;-61
2023/08/24 04:47:06;;;;;;;12.85;5.15;;;;;;;19.83;100.00;100629.47;8310600;28;20049;-61
2023/08/24 04:51:06;;;;;;;6.72;4.97;;;;;;;19.83;100.00;100629.47;8334195;28;20048;-61
2023/08/24 04:55:08;;;;;;;8.40;4.93;;;;;;;19.86;100.00;100629.09;8307252;28;20125;-61
2023/08/24 04:59:09;;;;;;;12.27;4.72;;;;;;;19.92;100.00;100621.94;8310451;28;20331;-61
2023/08/24 05:03:10;;;;;;;8.70;4.72;;;;;;;19.91;100.00;100609.28;8310084;28;20042;-61
2023/08/24 05:07:10;;;;;;;9.50;5.10;;;;;;;19.95;100.00;100597.72;8309878;28;20044;-61
2023/08/24 05:11:14;;;;;;;12.27;5.00;;;;;;;20.11;100.00;100596.53;8312552;28;20041;-61
2023/08/24 05:15:14;;;;;;;8.50;5.03;;;;;;;20.16;100.00;100583.09;8310977;28;20076;-60
2023/08/24 05:19:14;;;;;;;8.55;5.10;;;;;;;20.21;100.00;100595.19;8310202;28;20038;-61
2023/08/24 05:23:15;;;;;;;6.75;5.03;;;;;;;20.46;100.00;100595.56;8309933;28;20041;-61
2023/08/24 05:27:16;;;;;;;8.75;5.03;;;;;;;20.34;100.00;100605.41;8306973;28;20069;-61
2023/08/24 05:31:16;;;;;;;9.07;5.05;;;;;;;20.40;100.00;100599.13;8305170;28;20037;-62
2023/08/24 05:35:17;;;;;;;13.15;5.22;;;;;;;20.46;100.00;100603.81;8309673;28;20128;-61
2023/08/24 05:39:17;;;;;;;8.70;5.50;;;;;;;20.56;100.00;100604.28;8310591;28;20041;-61
2023/08/24 05:43:18;;;;;;;6.97;4.15;;;;;;;20.50;100.00;100583.09;8308154;28;20041;-60
2023/08/24 05:47:18;;;;;;;9.88;4.78;;;;;;;20.53;100.00;100577.22;8308343;28;20580;-61
2023/08/24 05:51:19;;;;;;;12.23;4.55;;;;;;;20.59;100.00;100579.97;8309808;28;20041;-60
2023/08/24 05:55:19;;;;;;;8.52;4.13;;;;;;;20.67;100.00;100570.72;8303760;28;20080;-59
2023/08/24 05:59:20;;;;;;;14.38;4.95;;;;;;;20.77;100.00;100574.78;8306235;28;20044;-59
2023/08/24 06:03:20;;;;;;;13.23;4.80;;;;;;;20.96;100.00;100567.72;8305464;28;20066;-59
2023/08/24 06:07:21;;;;;;;12.15;5.13;;;;;;;21.03;100.00;100568.56;8309174;28;20053;-59
2023/08/24 06:11:22;;;;;;;8.85;4.53;;;;;;;21.08;100.00;100553.13;8309970;28;20522;-59
2023/08/24 06:15:26;;;;;;;16.70;4.40;;;;;;;21.28;100.00;100550.44;8310061;28;20372;-60
2023/08/24 06:19:26;;;;;;;6.88;4.55;;;;;;;21.52;100.00;100541.59;8311723;28;20030;-59
2023/08/24 06:23:27;;;;;;;9.10;4.72;;;;;;;21.82;100.00;100537.41;8310442;28;20072;-61
2023/08/24 06:27:27;;;;;;;9.95;5.18;;;;;;;22.15;99.52;100521.69;8308737;28;20407;-61
2023/08/24 06:31:28;;;;;;;8.35;4.82;;;;;;;22.25;97.37;100516.56;8307638;28;20092;-60
2023/08/24 06:35:28;;;;;;;5.85;4.32;;;;;;;22.32;97.82;100509.13;8310789;28;20060;-61
2023/08/24 06:39:29;;;;;;;7.25;4.55;;;;;;;22.47;95.83;100514.34;8309179;28;20033;-60
2023/08/24 06:43:29;;;;;;;9.68;4.32;;;;;;;22.63;94.69;100509.25;8308588;28;20082;-61
2023/08/24 06:47:30;;;;;;;5.50;3.90;;;;;;;22.87;93.87;100514.00;8309981;28;20129;-61
2023/08/24 06:51:30;;;;;;;9.07;4.63;;;;;;;23.23;92.23;100509.78;8310688;28;20041;-61
2023/08/24 06:55:31;;;;;;;9.70;4.63;;;;;;;23.35;92.68;100502.47;8297046;28;20424;-61
2023/08/24 06:59:31;;;;;;;6.65;3.60;;;;;;;23.64;90.32;100491.66;8299530;28;20069;-61
2023/08/24 07:03:33;;;;;;;7.20;4.38;;;;;;;23.84;90.07;100485.91;8300554;28;20061;-59
2023/08/24 07:07:34;;;;;;;9.85;4.05;;;;;;;24.04;90.34;100476.41;8303643;28;20501;-59
2023/08/24 07:11:34;;;;;;;5.20;3.88;;;;;;;24.16;87.53;100495.84;8306058;28;20041;-59
2023/08/24 07:15:35;;;;;;;5.95;3.75;;;;;;;24.43;85.18;100486.16;8306255;28;20523;-59
2023/08/24 07:19:35;;;;;;;7.68;3.60;;;;;;;24.77;83.32;100466.19;8303438;28;20420;-60
2023/08/24 07:23:36;;;;;;;5.35;3.00;;;;;;;25.07;79.82;100471.72;8301711;28;20046;-61
2023/08/24 07:27:36;;;;;;;5.30;3.05;;;;;;;25.28;80.39;100469.22;8303782;28;20045;-61
2023/08/24 07:31:37;;;;;;;8.70;3.10;;;;;;;25.36;81.03;100466.16;8304058;28;20107;-60
2023/08/24 07:35:39;;;;;;;3.20;2.83;;;;;;;25.67;77.73;100467.78;8304084;28;20041;-61
2023/08/24 07:39:39;;;;;;;4.97;3.20;;;;;;;25.79;78.01;100452.84;8304919;28;20042;-61
2023/08/24 07:43:40;;;;;;;5.43;2.90;;;;;;;25.97;78.04;100463.81;8305997;28;20578;-60
2023/08/24 07:47:41;;;;;;;7.55;2.78;;;;;;;26.21;75.79;100461.88;8303588;28;20521;-59
2023/08/24 07:51:42;;;;;;;7.32;3.30;;;;;;;26.55;73.90;100472.91;8303847;28;20104;-60
2023/08/24 07:55:43;;;;;;;5.18;2.70;;;;;;;26.64;73.59;100471.44;8304824;28;20034;-59
2023/08/24 07:59:43;;;;;;;5.30;2.50;;;;;;;26.84;72.42;100471.84;8303216;28;20491;-60
2023/08/24 08:03:44;;;;;;;4.00;2.53;;;;;;;26.93;73.51;100471.47;8303087;28;20406;-60
2023/08/24 08:07:44;;;;;;;6.00;2.63;;;;;;;27.29;74.01;100468.28;8303708;28;20523;-59
2023/08/24 08:11:45;;;;;;;5.03;2.78;;;;;;;27.37;72.37;100456.75;8304543;28;20096;-59
2023/08/24 08:15:47;;;;;;;3.30;2.28;;;;;;;27.56;72.50;100447.06;8302841;28;20041;-60
2023/08/24 08:19:48;;;;;;;5.07;2.60;;;;;;;27.72;70.56;100454.59;8303671;28;20057;-57
2023/08/24 08:23:49;;;;;;;5.18;2.60;;;;;;;27.53;69.58;100445.66;8303114;28;20682;-58
2023/08/24 08:27:49;;;;;;;4.20;2.30;;;;;;;27.88;70.47;100440.72;8310880;28;20536;-58
2023/08/24 08:31:50;;;;;;;3.67;2.25;;;;;;;28.07;67.75;100427.34;8316920;28;20034;-61
2023/08/24 08:35:50;;;;;;;5.90;2.35;;;;;;;28.33;71.67;100427.41;8303240;28;20065;-61
2023/08/24 08:39:51;;;;;;;4.60;2.50;;;;;;;28.09;70.07;100414.03;8304570;28;20037;-62
2023/08/24 08:43:51;;;;;;;3.75;2.40;;;;;;;28.35;71.00;100419.69;8305074;28;20052;-60
2023/08/24 08:47:57;;;;;;;3.90;2.22;;;;;;;28.63;70.14;100421.41;8303302;28;20037;-60
2023/08/24 08:51:58;;;;;;;3.28;2.20;;;;;;;28.91;66.35;100418.41;8323588;28;20044;-58
2023/08/24 08:56:04;;;;;;;3.25;2.38;;;;;;;28.73;68.13;100404.00;8304366;28;20030;-57
2023/08/24 09:00:07;;;;;;;4.72;2.05;;;;;;;29.21;64.17;100392.84;8300594;28;20355;-57
2023/08/24 09:04:08;;;;;;;3.55;2.22;;;;;;;28.84;63.66;100389.94;8302819;28;20057;-56
2023/08/24 09:08:09;;;;;;;6.20;2.70;;;;;;;29.26;63.76;100365.84;8305294;28;20538;-57
2023/08/24 09:12:09;;;;;;;3.35;2.05;;;;;;;29.58;63.20;100352.72;8309462;28;20064;-58
2023/08/24 09:16:14;;;;;;;3.72;2.00;;;;;;;29.69;60.62;100331.34;8308134;28;20033;-57
2023/08/24 09:20:15;;;;;;;4.55;2.25;;;;;;;30.06;59.89;100321.78;8282776;28;20495;-57
2023/08/24 09:24:15;;;;;;;4.88;2.28;;;;;;;30.15;62.70;100314.56;8310051;28;20430;-57
2023/08/24 09:28:24;;;;;;;4.28;2.22;;;;;;;30.71;60.55;100309.16;8308882;28;20495;-57
2023/08/24 09:32:32;;;;;;;3.92;2.05;;;;;;;30.35;60.25;100309.06;8304452;28;20403;-57
2023/08/24 09:36:34;;;;;;;3.88;1.80;;;;;;;30.48;60.08;100315.25;8309821;28;20049;-57
2023/08/24 09:40:35;;;;;;;4.95;2.40;;;;;;;30.35;61.09;100309.06;8307873;28;20044;-56
2023/08/24 09:44:36;;;;;;;4.55;1.83;;;;;;;30.74;58.93;100300.28;8307728;28;20333;-57
2023/08/24 09:48:36;;;;;;;4.00;1.88;;;;;;;31.02;60.13;100324.88;8303452;28;20053;-58
2023/08/24 09:52:40;;;;;;;3.03;1.77;;;;;;;31.67;57.09;100333.19;8306969;28;20092;-58
2023/08/24 09:56:41;;;;;;;6.82;1.88;;;;;;;32.39;55.89;100347.56;8308943;28;20745;-58
2023/08/24 10:00:46;;;;;;;3.22;2.00;;;;;;;32.03;55.71;100332.00;8304216;28;20037;-58
2023/08/24 10:04:48;;;;;;;3.08;1.80;;;;;;;32.57;55.53;100327.31;8303805;28;20033;-57
2023/08/24 10:08:54;;;;;;;7.18;1.90;;;;;;;32.20;55.52;100340.91;8308356;28;20037;-57
2023/08/24 10:13:06;;;;;;;4.30;2.10;;;;;;;32.15;55.83;100341.78;8305971;28;20048;-57
2023/08/24 10:17:08;;;;;;;4.78;1.77;;;;;;;32.15;56.04;100352.13;8305699;28;20057;-57
2023/08/24 10:21:10;;;;;;;3.10;1.70;;;;;;;32.08;56.38;100368.38;8309037;28;20041;-57
2023/08/24 10:25:13;;;;;;;3.03;1.75;;;;;;;31.90;58.05;100360.59;8304620;28;20509;-57
2023/08/24 10:29:14;;;;;;;4.18;2.05;;;;;;;31.81;56.05;100351.09;8309316;28;20046;-57
2023/08/24 10:33:16;;;;;;;4.10;1.70;;;;;;;31.66;57.48;100354.75;8304188;28;20135;-59
2023/08/24 10:37:16;;;;;;;9.27;1.70;;;;;;;31.43;57.92;100360.06;8305640;28;20089;-59
2023/08/24 10:41:17;;;;;;;3.92;1.83;;;;;;;31.61;57.78;100351.13;8305717;28;20096;-59
2023/08/24 10:45:22;;;;;;;8.13;2.50;;;;;;;31.42;57.79;100358.41;8306768;28;20041;-59
2023/08/24 10:49:29;;;;;;;4.28;1.55;;;;;;;31.13;59.79;100354.50;8306496;28;20318;-59
2023/08/24 10:53:46;;;;;;;3.85;2.13;;;;;;;31.26;58.74;100343.59;8326108;28;20042;-59
2023/08/24 10:57:56;;;;;;;3.28;2.08;;;;;;;31.09;59.55;100344.97;8294380;28;20034;-59
2023/08/24 11:01:58;;;;;;;9.77;2.50;;;;;;;30.87;59.77;100344.41;8304859;28;20065;-59
2023/08/24 11:05:58;;;;;;;3.67;1.77;;;;;;;30.80;60.23;100332.66;8304807;28;20535;-59
2023/08/24 11:10:10;;;;;;;4.68;2.03;;;;;;;30.93;58.81;100332.13;8306660;28;20466;-59
2023/08/24 11:14:18;;;;;;;3.10;1.50;;;;;;;30.76;59.48;100346.34;8304839;28;20041;-59
2023/08/24 11:18:28;;;;;;;4.47;1.52;;;;;;;30.74;59.66;100356.13;8305085;28;20025;-59
2023/08/24 11:22:30;;;;;;;5.85;1.83;;;;;;;30.79;59.21;100358.94;8305627;28;20099;-59
2023/08/24 11:26:30;;;;;;;5.32;2.03;;;;;;;30.64;59.76;100373.63;8304429;28;20261;-59
2023/08/24 11:30:33;;;;;;;4.78;2.40;;;;;;;30.61;59.63;100390.94;8301360;28;20045;-59
2023/08/24 11:34:35;;;;;;;3.97;1.70;;;;;;;30.60;59.20;100411.59;8305971;28;25194;-59
2023/08/24 11:38:39;;;;;;;8.27;2.45;;;;;;;30.60;62.25;100424.72;8304140;28;20045;-59
2023/08/24 11:42:40;;;;;;;7.95;2.13;;;;;;;30.00;65.64;100423.28;8301176;28;20142;-59
2023/08/24 11:46:40;;;;;;;6.80;1.63;;;;;;;29.58;66.84;100419.59;8305057;28;20034;-59
2023/08/24 11:50:42;;;;;;;4.72;1.92;;;;;;;29.54;71.40;100439.91;8304681;28;20044;-59
2023/08/24 11:54:42;;;;;;;5.10;2.00;;;;;;;29.26;73.17;100432.72;8303350;28;20037;-59
2023/08/24 11:58:47;;;;;;;5.57;1.80;;;;;;;28.86;75.88;100425.84;8303301;28;20037;-59
2023/08/24 12:02:48;;;;;;;6.88;2.85;;;;;;;28.37;76.01;100433.31;8299722;28;20041;-59
2023/08/24 12:06:49;;;;;;;8.60;3.30;;;;;;;28.00;76.98;100429.47;8302787;28;20036;-58
2023/08/24 12:10:49;;;;;;;9.13;3.20;;;;;;;27.76;81.10;100430.75;8302943;28;20516;-59
2023/08/24 12:14:50;;;;;;;11.63;3.85;;;;;;;27.23;87.34;100424.84;8302851;28;20508;-58
2023/08/24 12:18:53;;;;;;;10.38;3.65;;;;;;;26.49;96.10;100423.94;8304624;28;20117;-58
2023/08/24 12:22:55;;;;;;;8.77;3.47;;;;;;;26.06;99.36;100406.94;8293555;28;20037;-58
2023/08/24 12:26:57;;;;;;;7.18;3.50;;;;;;;25.89;100.00;100391.28;8324230;28;20389;-61
2023/08/24 12:31:01;;;;;;;10.43;4.15;;;;;;;25.85;100.00;100379.84;8300943;28;20042;-60
2023/08/24 12:35:03;;;;;;;7.50;3.90;;;;;;;25.81;100.00;100366.72;8303507;28;20053;-61
2023/08/24 12:39:05;;;;;;;9.40;3.33;;;;;;;25.79;100.00;100333.72;8303665;28;20125;-61
2023/08/24 12:43:06;;;;;;;9.75;3.40;;;;;;;25.59;100.00;100313.91;8303462;28;20494;-61
2023/08/24 12:47:06;;;;;;;27.98;6.50;;;;;;;25.39;100.00;100293.19;8309122;28;20484;-61
2023/08/24 12:51:07;;;;;;;8.73;3.92;;;;;;;25.53;100.00;100297.41;8311132;28;20068;-61
2023/08/24 12:55:07;;;;;;;6.82;3.03;;;;;;;26.02;100.00;100294.91;8309869;28;20514;-61
2023/08/24 12:59:08;;;;;;;4.93;2.65;;;;;;;26.18;95.35;100277.50;8307347;28;21133;-61
2023/08/24 13:03:09;;;;;;;6.15;2.38;;;;;;;26.16;94.07;100256.63;8306163;28;20407;-61
2023/08/24 13:07:09;;;;;;;5.53;2.95;;;;;;;25.89;94.45;100250.00;8310502;28;20041;-61
2023/08/24 13:11:11;;;;;;;9.40;2.70;;;;;;;25.74;92.22;100222.78;8309268;28;20048;-61
2023/08/24 13:15:11;;;;;;;7.38;2.95;;;;;;;25.54;94.03;100200.25;8307927;28;20483;-61
2023/08/24 13:19:12;;;;;;;7.07;2.33;;;;;;;25.30;94.62;100190.28;8309253;28;20635;-61
2023/08/24 13:23:12;;;;;;;5.80;2.50;;;;;;;25.03;96.34;100225.06;8308078;28;20091;-61
2023/08/24 13:27:12;;;;;;;5.43;2.08;;;;;;;25.19;92.35;100249.28;8308155;28;20091;-61
2023/08/24 13:31:13;;;;;;;5.80;2.33;;;;;;;25.50;90.98;100273.81;8305067;28;20044;-61
2023/08/24 13:35:14;;;;;;;7.70;2.20;;;;;;;25.72;88.84;100261.00;8304905;28;20038;-60
2023/08/24 13:39:14;;;;;;;3.88;2.30;;;;;;;25.51;90.60;100245.03;8309535;28;20479;-61
2023/08/24 13:43:14;;;;;;;3.75;1.92;;;;;;;25.48;91.59;100242.75;8307340;28;20037;-61
2023/08/24 13:47:15;;;;;;;5.63;2.35;;;;;;;25.79;93.18;100260.84;8299640;28;20099;-61
2023/08/24 13:51:15;;;;;;;4.53;2.13;;;;;;;25.72;89.74;100257.38;8306168;28;20037;-60
2023/08/24 13:55:16;;;;;;;3.40;1.90;;;;;;;25.52;89.88;100257.78;8307227;28;20033;-61
2023/08/24 13:59:17;;;;;;;7.03;2.53;;;;;;;25.64;94.31;100277.97;8302187;28;20041;-61
2023/08/24 14:03:17;;;;;;;11.80;2.75;;;;;;;25.30;95.99;100295.44;8302342;28;20066;-61
2023/08/24 14:07:18;;;;;;;8.95;2.90;;;;;;;25.15;100.00;100306.16;8308332;28;20057;-61
2023/08/24 14:11:18;;;;;;;6.60;2.65;;;;;;;24.89;100.00;100321.28;8307214;28;20064;-61
2023/08/24 14:15:18;;;;;;;5.93;2.47;;;;;;;24.87;100.00;100328.16;8305620;28;20124;-61
2023/08/24 14:19:19;;;;;;;6.63;2.70;;;;;;;24.98;100.00;100343.94;8304805;28;20606;-61
2023/08/24 14:23:19;;;;;;;3.78;2.53;;;;;;;24.87;100.00;100345.59;8304995;28;20038;-58
2023/08/24 14:27:20;;;;;;;6.80;2.72;;;;;;;24.65;100.00;100335.31;8299086;28;20038;-58
2023/08/24 14:31:21;;;;;;;5.40;2.75;;;;;;;24.56;100.00;100333.94;8297081;28;20167;-58
2023/08/24 14:35:22;;;;;;;7.22;2.35;;;;;;;24.27;100.00;100332.00;8303617;28;20084;-58
2023/08/24 14:39:23;;;;;;;3.20;1.98;;;;;;;24.29;100.00;100346.44;8298307;28;20042;-58
2023/08/24 14:43:23;;;;;;;5.88;2.35;;;;;;;24.10;100.00;100337.34;8304242;28;20117;-61
2023/08/24 14:47:24;;;;;;;5.65;2.65;;;;;;;23.95;100.00;100338.81;8302973;28;20368;-61
2023/08/24 14:51:24;;;;;;;3.53;1.85;;;;;;;23.73;100.00;100315.50;8301221;28;20835;-60
2023/08/24 14:55:24;;;;;;;12.60;2.40;;;;;;;23.74;100.00;100300.59;8304057;28;20084;-61
2023/08/24 14:59:25;;;;;;;10.15;2.00;;;;;;;23.61;100.00;100281.44;8302358;28;20041;-61
2023/08/24 15:03:26;;;;;;;4.60;1.80;;;;;;;23.51;100.00;100270.09;8300624;28;20033;-61
2023/08/24 15:07:26;;;;;;;6.95;1.95;;;;;;;23.50;100.00;100273.91;8301126;28;20040;-61
2023/08/24 15:11:27;;;;;;;7.00;2.17;;;;;;;23.43;100.00;100286.94;8300884;28;20455;-61
2023/08/24 15:15:27;;;;;;;7.03;2.00;;;;;;;23.28;100.00;100303.88;8303488;28;20062;-61
2023/08/24 15:19:27;;;;;;;11.13;1.95;;;;;;;23.21;100.00;100308.59;8302219;28;20084;-61
2023/08/24 15:23:30;;;;;;;4.93;1.30;;;;;;;23.10;100.00;100328.63;8300156;28;20033;-61
2023/08/24 15:27:30;;;;;;;7.63;1.30;;;;;;;23.19;100.00;100322.63;8303040;28;20354;-61
2023/08/24 15:31:31;;;;;;;4.18;0.98;;;;;;;23.14;100.00;100314.16;8300997;28;20041;-61
2023/08/24 15:35:31;;;;;;;4.75;1.20;;;;;;;23.08;100.00;100281.97;8323282;23;20049;-82
2023/08/24 15:39:37;;;;;;;4.70;1.17;;;;;;;23.01;100.00;100258.28;8316122;28;20045;-82
2023/08/24 15:43:38;;;;;;;4.45;0.82;;;;;;;22.95;100.00;100243.50;8261322;28;20040;-79
2023/08/24 15:47:38;;;;;;;4.10;1.15;;;;;;;22.95;100.00;100232.47;8290352;28;20655;-80
2023/08/24 15:51:39;;;;;;;4.65;0.98;;;;;;;22.74;100.00;100163.13;8307483;28;20038;-79
2023/08/24 15:55:41;;;;;;;2.95;0.88;;;;;;;22.93;100.00;100197.91;8248728;28;20044;-80
2023/08/24 15:59:46;;;;;;;3.17;0.90;;;;;;;22.86;100.00;100178.69;8288268;28;20034;-80
2023/08/24 16:03:46;;;;;;;2.53;0.82;;;;;;;22.92;100.00;100175.03;8276902;28;20038;-80
2023/08/24 16:07:50;;;;;;;2.17;0.70;;;;;;;22.73;100.00;100139.41;8290393;28;20054;-80
2023/08/24 16:11:52;;;;;;;1.63;0.80;;;;;;;22.93;100.00;100142.75;8286412;28;20041;-80
2023/08/24 16:15:52;;;;;;;2.22;0.60;;;;;;;22.78;100.00;100109.25;8291452;28;20041;-79
2023/08/24 16:19:52;;;;;;;3.17;1.10;;;;;;;22.93;100.00;100116.03;8278456;28;20038;-79
2023/08/24 16:23:54;;;;;;;2.80;1.00;;;;;;;22.85;100.00;100069.50;8301388;28;20450;-92
2023/08/24 16:27:57;;;;;;;2.95;1.23;;;;;;;22.84;100.00;100042.16;8299661;28;20049;-90
2023/08/24 16:31:58;;;;;;;2.85;1.00;;;;;;;22.82;100.00;100012.06;8310337;28;20033;-91
2023/08/24 16:35:59;;;;;;;3.33;0.98;;;;;;;22.82;100.00;99998.28;8287760;28;20120;-91
2023/08/24 16:40:00;;;;;;;2.70;1.02;;;;;;;23.25;100.00;100016.56;8293673;28;20038;-91
2023/08/24 16:44:03;;;;;;;2.60;0.88;;;;;;;23.13;100.00;99970.47;8298008;28;20030;-90
2023/08/24 16:48:04;;;;;;;5.13;1.35;;;;;;;22.99;100.00;99922.09;8320322;28;20045;-89
2023/08/24 16:52:05;;;;;;;1.92;0.80;;;;;;;23.28;100.00;99985.75;8281820;28;20038;-80
2023/08/24 16:56:06;;;;;;;3.17;1.60;;;;;;;23.20;100.00;99960.16;8296457;28;20044;-79
2023/08/24 17:00:07;;;;;;;2.35;1.00;;;;;;;23.42;100.00;100003.81;8279144;28;20025;-80
2023/08/24 17:04:08;;;;;;;1.15;0.80;;;;;;;23.19;100.00;99949.38;8276730;28;20049;-89
2023/08/24 17:08:09;;;;;;;1.80;0.93;;;;;;;22.99;100.00;99935.88;8297551;28;20037;-87
2023/08/24 17:12:11;;;;;;;1.70;0.90;;;;;;;23.11;100.00;99967.09;8293933;28;20121;-79
2023/08/24 17:16:11;;;;;;;3.35;1.08;;;;;;;23.32;100.00;99995.28;8312519;28;20107;-78
2023/08/24 17:20:12;;;;;;;4.55;1.00;;;;;;;23.40;100.00;100003.19;8312711;28;20037;-79
2023/08/24 17:24:13;;;;;;;1.30;0.80;;;;;;;23.43;100.00;99999.97;8279923;28;20041;-79
2023/08/24 17:28:17;;;;;;;1.90;0.90;;;;;;;23.17;100.00;99974.44;8269379;28;20046;-80
2023/08/24 17:32:18;;;;;;;2.72;1.02;;;;;;;23.25;100.00;99986.22;8317258;28;20041;-88
2023/08/24 17:36:21;;;;;;;8.52;1.27;;;;;;;23.40;100.00;99993.00;8288035;28;20047;-85
2023/08/24 17:40:22;;;;;;;4.53;1.15;;;;;;;23.26;100.00;99974.13;8300097;28;20504;-86
2023/08/24 17:44:22;;;;;;;3.15;0.90;;;;;;;23.28;100.00;99983.00;8271194;28;20408;-86
2023/08/24 17:48:26;;;;;;;6.22;1.25;;;;;;;23.09;100.00;99958.19;8277460;28;20052;-86
2023/08/24 17:52:27;;;;;;;3.58;1.60;;;;;;;23.39;100.00;100012.56;8296205;28;20149;-86
2023/08/24 17:56:28;;;;;;;3.63;0.88;;;;;;;23.32;100.00;100009.06;8298800;28;20048;-86
2023/08/24 18:00:37;;;;;;;2.25;1.10;;;;;;;23.33;100.00;99991.41;8275827;28;20041;-81
2023/08/24 18:04:44;;;;;;;2.30;0.77;;;;;;;23.62;100.00;100018.97;8241871;28;20058;-87
2023/08/24 18:08:45;;;;;;;4.93;1.40;;;;;;;23.18;100.00;99967.81;8290933;28;20048;-86
2023/08/24 18:12:46;;;;;;;3.72;1.67;;;;;;;23.07;100.00;99971.41;8294235;28;20033;-85
2023/08/24 18:16:49;;;;;;;3.63;0.95;;;;;;;23.37;100.00;100003.66;8310910;28;20033;-85
2023/08/24 18:20:50;;;;;;;4.95;1.30;;;;;;;23.01;100.00;99955.78;8311114;28;20041;-86
2023/08/24 18:24:50;;;;;;;1.92;1.30;;;;;;;23.28;100.00;99999.56;8284394;28;20041;-86
2023/08/24 18:28:54;;;;;;;2.67;1.00;;;;;;;23.39;100.00;100001.50;8290923;28;20046;-85
2023/08/24 18:32:55;;;;;;;3.28;1.20;;;;;;;23.26;100.00;99976.91;8307830;28;20030;-86
2023/08/24 18:36:56;;;;;;;3.10;1.10;;;;;;;23.44;100.00;99996.09;8288969;28;20041;-86